Time;durP1;ratioP1;P1;durP2;ratioP2;P2;SDS_P1;SDS_P2;PMS_P1;PMS_P2;Temp;Humidity;BMP_temperature;BMP_pressure;BME280_temperature;BME280_humidity;BME280_pressure;Samples;Min_cycle;Max_cycle;Signal;HPM_P1;HPM_P2
2024/04/19 00:01:39;;;;;;;28.83;15.77;;;1.30;99.90;;;;;;5489066;26;20334;-71
2024/04/19 00:04:05;;;;;;;22.38;12.63;;;1.20;99.90;;;;;;5489110;26;20046;-71
2024/04/19 00:06:31;;;;;;;31.70;17.00;;;1.20;99.90;;;;;;5488201;26;20013;-72
2024/04/19 00:08:57;;;;;;;27.17;16.23;;;1.20;99.90;;;;;;5489751;26;20432;-72
2024/04/19 00:11:22;;;;;;;23.83;13.63;;;1.20;99.90;;;;;;5490258;26;19998;-72
2024/04/19 00:13:48;;;;;;;19.33;10.77;;;1.20;99.90;;;;;;5489028;26;20017;-72
2024/04/19 00:16:14;;;;;;;18.83;11.23;;;1.20;99.90;;;;;;5484424;26;20002;-72
2024/04/19 00:18:39;;;;;;;21.77;12.32;;;1.20;99.90;;;;;;5453023;26;20336;-72
2024/04/19 00:21:05;;;;;;;20.08;12.55;;;1.20;99.90;;;;;;5492897;26;20513;-72
2024/04/19 00:23:31;;;;;;;20.92;11.32;;;1.10;99.90;;;;;;5479421;26;20436;-72
2024/04/19 00:25:57;;;;;;;32.78;17.90;;;1.10;99.90;;;;;;5485019;26;20013;-72
2024/04/19 00:28:22;;;;;;;20.05;12.35;;;1.10;99.90;;;;;;5487478;26;20006;-72
2024/04/19 00:30:48;;;;;;;18.15;10.40;;;1.00;99.90;;;;;;5489472;26;20024;-72
2024/04/19 00:33:14;;;;;;;14.07;8.57;;;1.00;99.90;;;;;;5472697;26;20010;-72
2024/04/19 00:35:39;;;;;;;22.65;13.38;;;1.00;99.90;;;;;;5488872;26;20009;-71
2024/04/19 00:38:05;;;;;;;32.92;16.52;;;0.90;99.90;;;;;;5479313;26;19999;-72
2024/04/19 00:40:31;;;;;;;24.30;12.65;;;0.80;99.90;;;;;;5452944;26;20014;-71
2024/04/19 00:42:58;;;;;;;15.43;10.02;;;0.90;99.90;;;;;;5485876;26;20002;-72
2024/04/19 00:45:37;;;;;;;20.27;10.35;;;0.90;99.90;;;;;;5489498;26;20002;-71
2024/04/19 00:48:17;;;;;;;15.88;9.82;;;0.80;99.90;;;;;;5465210;26;20425;-72
2024/04/19 00:50:49;;;;;;;16.27;9.30;;;0.80;99.90;;;;;;5489399;26;19995;-71
2024/04/19 00:53:26;;;;;;;16.98;8.95;;;0.80;99.90;;;;;;5466829;26;20020;-71
2024/04/19 00:55:53;;;;;;;16.08;9.32;;;0.80;99.90;;;;;;5488671;26;20010;-72
2024/04/19 00:58:19;;;;;;;16.45;9.55;;;0.80;99.90;;;;;;5474323;26;20003;-72
2024/04/19 01:00:45;;;;;;;12.98;8.85;;;0.80;99.90;;;;;;5481332;26;20014;-71
2024/04/19 01:03:12;;;;;;;16.20;8.90;;;0.80;99.90;;;;;;5485256;26;20028;-71
2024/04/19 01:05:38;;;;;;;12.23;9.45;;;0.70;99.90;;;;;;5468636;26;20004;-71
2024/04/19 01:08:05;;;;;;;12.35;9.15;;;0.70;99.90;;;;;;5486808;26;20002;-71
2024/04/19 01:10:31;;;;;;;13.02;8.40;;;0.70;99.90;;;;;;5473197;26;20023;-72
2024/04/19 01:12:58;;;;;;;13.95;9.45;;;0.70;99.90;;;;;;5455047;26;20006;-71
2024/04/19 01:15:23;;;;;;;19.55;11.25;;;0.60;99.90;;;;;;5489106;26;20012;-72
2024/04/19 01:17:49;;;;;;;17.80;11.15;;;0.60;99.90;;;;;;5486963;26;19998;-71
2024/04/19 01:20:15;;;;;;;29.88;18.33;;;0.60;99.90;;;;;;5489311;26;20010;-72
2024/04/19 01:22:42;;;;;;;24.92;15.38;;;0.50;99.90;;;;;;5483581;26;20021;-71
2024/04/19 01:25:15;;;;;;;20.15;11.65;;;0.50;99.90;;;;;;5488981;26;20034;-72
2024/04/19 01:27:41;;;;;;;;;;;0.50;99.90;;;;;;5489351;26;20050;-72
2024/04/19 01:30:07;;;;;;;24.80;14.13;;;0.50;99.90;;;;;;5488366;26;19931;-72
2024/04/19 01:32:32;;;;;;;17.33;10.15;;;0.50;99.90;;;;;;5468039;26;20009;-72
2024/04/19 01:34:58;;;;;;;19.00;9.07;;;0.50;99.90;;;;;;5486572;26;20014;-71
2024/04/19 01:37:24;;;;;;;15.10;9.57;;;0.50;99.90;;;;;;5482826;26;20014;-71
2024/04/19 01:39:50;;;;;;;22.95;13.30;;;0.40;99.90;;;;;;5464051;26;20002;-71
2024/04/19 01:42:15;;;;;;;16.30;10.80;;;0.40;99.90;;;;;;5462361;26;20021;-72
2024/04/19 01:44:41;;;;;;;20.70;11.38;;;0.50;99.90;;;;;;5484033;26;20002;-71
2024/04/19 01:47:06;;;;;;;31.60;15.77;;;0.50;99.90;;;;;;5469601;26;20491;-71
2024/04/19 01:49:32;;;;;;;22.35;11.98;;;0.60;99.90;;;;;;5487671;26;20146;-71
2024/04/19 01:51:58;;;;;;;18.33;10.55;;;0.60;99.90;;;;;;5488870;26;20006;-71
2024/04/19 01:54:23;;;;;;;19.27;11.25;;;0.60;99.90;;;;;;5464111;26;20017;-71
2024/04/19 01:56:52;;;;;;;19.88;10.88;;;0.70;99.90;;;;;;5484943;26;20076;-71
2024/04/19 01:59:18;;;;;;;19.95;12.23;;;0.80;99.90;;;;;;5466624;26;20007;-71
2024/04/19 02:01:44;;;;;;;21.17;12.10;;;0.80;99.90;;;;;;5486929;26;20002;-73
2024/04/19 02:04:09;;;;;;;18.73;11.48;;;0.80;99.90;;;;;;5486228;26;19998;-71
2024/04/19 02:06:37;;;;;;;18.80;11.95;;;0.80;99.90;;;;;;5477859;26;20083;-73
2024/04/19 02:09:05;;;;;;;18.02;11.77;;;0.90;99.90;;;;;;5475561;26;20030;-72
2024/04/19 02:11:31;;;;;;;20.17;12.18;;;0.90;99.90;;;;;;5465683;26;20003;-73
2024/04/19 02:13:56;;;;;;;18.33;10.65;;;0.90;99.90;;;;;;5486473;26;19998;-72
2024/04/19 02:16:22;;;;;;;26.13;12.90;;;0.90;99.90;;;;;;5488281;26;20012;-72
2024/04/19 02:18:48;;;;;;;21.25;11.65;;;0.90;99.90;;;;;;5476996;26;20480;-71
2024/04/19 02:21:13;;;;;;;26.60;13.20;;;1.00;99.90;;;;;;5460592;26;20014;-72
2024/04/19 02:23:42;;;;;;;19.27;11.85;;;1.00;99.90;;;;;;5476829;26;19999;-71
2024/04/19 02:26:08;;;;;;;22.23;12.43;;;0.90;99.90;;;;;;5476260;26;20002;-73
2024/04/19 02:31:19;;;;;;;21.88;13.45;;;0.90;99.90;;;;;;5480609;26;20051;-72
2024/04/19 02:33:45;;;;;;;21.88;12.55;;;0.80;99.90;;;;;;5487757;26;19998;-72
2024/04/19 02:36:11;;;;;;;21.75;12.27;;;0.70;99.90;;;;;;5487513;26;20503;-72
2024/04/19 02:38:37;;;;;;;22.90;12.95;;;0.70;99.90;;;;;;5487770;26;20017;-72
2024/04/19 02:41:03;;;;;;;31.17;13.93;;;0.70;99.90;;;;;;5487671;26;20010;-72
2024/04/19 02:43:29;;;;;;;26.92;13.68;;;0.60;99.90;;;;;;5485967;26;20375;-72
2024/04/19 02:45:55;;;;;;;30.52;13.25;;;0.60;99.90;;;;;;5462418;26;20014;-72
2024/04/19 02:48:20;;;;;;;41.10;14.45;;;0.60;99.90;;;;;;5487635;26;20017;-72
2024/04/19 02:50:49;;;;;;;50.63;16.30;;;0.50;99.90;;;;;;5487008;26;20001;-72
2024/04/19 02:53:16;;;;;;;28.80;13.38;;;0.50;99.90;;;;;;5487505;26;20312;-71
2024/04/19 02:55:41;;;;;;;30.35;14.30;;;0.50;99.90;;;;;;5487169;26;20401;-71
2024/04/19 02:58:07;;;;;;;31.38;16.98;;;0.60;99.90;;;;;;5487283;26;20002;-71
2024/04/19 03:00:33;;;;;;;35.95;17.80;;;0.60;99.90;;;;;;5487010;26;20339;-69
2024/04/19 03:02:58;;;;;;;32.50;18.77;;;0.60;99.90;;;;;;5487297;26;20016;-71
2024/04/19 03:05:24;;;;;;;33.92;18.23;;;0.70;99.90;;;;;;5487626;26;20340;-72
2024/04/19 03:07:50;;;;;;;37.60;21.05;;;0.70;99.90;;;;;;5487493;26;20078;-70
2024/04/19 03:10:16;;;;;;;36.90;19.58;;;0.70;99.90;;;;;;5487183;26;20096;-71
2024/04/19 03:12:41;;;;;;;40.95;20.70;;;0.70;99.90;;;;;;5487368;26;20590;-71
2024/04/19 03:15:07;;;;;;;44.15;22.02;;;0.70;99.90;;;;;;5486697;26;20348;-71
2024/04/19 03:17:33;;;;;;;40.90;21.10;;;0.70;99.90;;;;;;5485844;26;20001;-72
2024/04/19 03:19:59;;;;;;;37.80;22.75;;;0.70;99.90;;;;;;5486919;26;20450;-72
2024/04/19 03:22:24;;;;;;;42.30;21.75;;;0.70;99.90;;;;;;5486955;26;20013;-72
2024/04/19 03:24:50;;;;;;;46.42;23.88;;;0.70;99.90;;;;;;5486973;26;20008;-72
2024/04/19 03:27:16;;;;;;;50.85;26.33;;;0.70;99.90;;;;;;5487206;26;20010;-72
2024/04/19 03:29:42;;;;;;;49.92;25.48;;;0.70;99.90;;;;;;5483335;26;20009;-73
2024/04/19 03:32:07;;;;;;;55.35;24.83;;;0.70;99.90;;;;;;5453649;26;20459;-72
2024/04/19 03:34:33;;;;;;;61.47;28.33;;;0.70;99.90;;;;;;5485574;26;20002;-72
2024/04/19 03:36:58;;;;;;;61.80;28.30;;;0.70;99.90;;;;;;5487289;26;20042;-73
2024/04/19 03:39:24;;;;;;;62.28;29.55;;;0.70;99.90;;;;;;5486907;26;20025;-72
2024/04/19 03:41:51;;;;;;;69.00;31.52;;;0.60;99.90;;;;;;5487150;26;20338;-72
2024/04/19 03:47:01;;;;;;;77.03;31.45;;;0.70;99.90;;;;;;5481366;26;20091;-72
2024/04/19 03:49:27;;;;;;;87.35;34.85;;;0.70;99.90;;;;;;5467722;26;20022;-72
2024/04/19 03:51:55;;;;;;;74.90;32.70;;;0.70;99.90;;;;;;5439915;26;20043;-71
2024/04/19 03:54:21;;;;;;;79.97;34.10;;;0.80;99.90;;;;;;5444847;26;20021;-72
2024/04/19 03:56:46;;;;;;;79.07;33.58;;;0.80;99.90;;;;;;5466808;26;20068;-72
2024/04/19 03:59:12;;;;;;;117.65;35.97;;;0.80;99.90;;;;;;5477636;26;19998;-72
2024/04/19 04:01:39;;;;;;;93.72;36.67;;;0.80;99.90;;;;;;5485541;26;20010;-72
2024/04/19 04:04:04;;;;;;;83.32;35.30;;;0.80;99.90;;;;;;5471143;26;20444;-72
2024/04/19 04:06:30;;;;;;;96.50;35.40;;;0.80;99.90;;;;;;5421525;26;20092;-71
2024/04/19 04:08:56;;;;;;;104.93;37.60;;;0.70;99.90;;;;;;5472779;26;20036;-72
2024/04/19 04:11:22;;;;;;;121.93;39.50;;;0.70;99.90;;;;;;5452800;26;20010;-71
2024/04/19 04:13:48;;;;;;;145.63;41.88;;;0.80;99.90;;;;;;5485956;26;20002;-72
2024/04/19 04:16:13;;;;;;;93.90;35.83;;;0.80;99.90;;;;;;5452931;26;20017;-71
2024/04/19 04:18:40;;;;;;;96.78;35.47;;;0.80;99.90;;;;;;5485357;26;20355;-71
2024/04/19 04:21:05;;;;;;;130.80;40.65;;;0.80;99.90;;;;;;5483731;26;20003;-72
2024/04/19 04:23:32;;;;;;;157.95;43.63;;;0.80;99.90;;;;;;5485789;26;20009;-72
2024/04/19 04:25:58;;;;;;;134.52;40.55;;;0.90;99.90;;;;;;5452915;26;20020;-72
2024/04/19 04:28:24;;;;;;;119.85;37.55;;;0.80;99.90;;;;;;5451599;26;20340;-71
2024/04/19 04:30:50;;;;;;;132.98;40.97;;;0.80;99.90;;;;;;5456445;26;20019;-72
2024/04/19 04:33:16;;;;;;;122.05;36.88;;;0.80;99.90;;;;;;5478926;26;20006;-71
2024/04/19 04:35:44;;;;;;;94.55;33.22;;;0.80;99.90;;;;;;5474423;26;20076;-72
2024/04/19 04:38:10;;;;;;;122.60;36.03;;;0.80;99.90;;;;;;5471713;26;19998;-71
2024/04/19 04:40:36;;;;;;;90.07;35.70;;;0.80;99.90;;;;;;5475805;26;20467;-71
2024/04/19 04:43:02;;;;;;;89.28;35.15;;;0.80;99.90;;;;;;5474759;26;20013;-71
2024/04/19 04:45:29;;;;;;;97.07;38.70;;;0.80;99.90;;;;;;5486084;26;20424;-70
2024/04/19 04:47:55;;;;;;;83.43;38.17;;;0.90;99.90;;;;;;5485661;26;20002;-71
2024/04/19 04:50:22;;;;;;;219.55;81.78;;;0.90;99.90;;;;;;5488842;26;20419;-70
2024/04/19 04:52:48;;;;;;;151.10;59.70;;;0.90;99.90;;;;;;5482961;26;19994;-71
2024/04/19 04:55:14;;;;;;;183.55;67.68;;;0.90;99.90;;;;;;5488414;26;20347;-70
2024/04/19 04:57:40;;;;;;;94.28;41.33;;;0.90;99.90;;;;;;5487772;26;20002;-71
2024/04/19 05:00:07;;;;;;;104.57;46.58;;;0.90;99.90;;;;;;5488379;26;20034;-72
2024/04/19 05:02:34;;;;;;;99.32;42.42;;;1.00;99.90;;;;;;5481009;26;20034;-71
2024/04/19 05:05:00;;;;;;;100.65;42.25;;;1.00;99.90;;;;;;5488111;26;20010;-71
2024/04/19 05:07:26;;;;;;;108.07;42.90;;;1.00;99.90;;;;;;5488561;26;20006;-71
2024/04/19 05:09:51;;;;;;;105.35;43.30;;;1.00;99.90;;;;;;5488251;26;20003;-69
2024/04/19 05:12:17;;;;;;;107.05;46.28;;;1.10;99.90;;;;;;5488750;26;20403;-71
2024/04/19 05:14:43;;;;;;;117.80;44.85;;;1.20;99.90;;;;;;5471888;26;19999;-70
2024/04/19 05:17:09;;;;;;;111.70;45.17;;;1.20;99.90;;;;;;5481482;26;19998;-71
2024/04/19 05:19:35;;;;;;;114.75;45.90;;;1.20;99.90;;;;;;5484409;26;20569;-71
2024/04/19 05:22:00;;;;;;;112.68;47.75;;;1.30;99.90;;;;;;5488098;26;19998;-71
2024/04/19 05:24:26;;;;;;;100.93;47.90;;;1.40;99.90;;;;;;5466690;26;20451;-72
2024/04/19 05:26:53;;;;;;;119.03;48.85;;;1.40;99.90;;;;;;5484912;26;20005;-72
2024/04/19 05:29:18;;;;;;;102.35;45.70;;;1.50;99.90;;;;;;5479608;26;19995;-71
2024/04/19 05:31:44;;;;;;;96.55;42.42;;;1.50;99.90;;;;;;5486714;26;20143;-72
2024/04/19 05:34:10;;;;;;;95.10;42.63;;;1.60;99.90;;;;;;5488069;26;20010;-72
2024/04/19 05:36:35;;;;;;;83.70;38.67;;;1.60;99.90;;;;;;5484219;26;20002;-71
2024/04/19 05:42:22;;;;;;;81.45;40.80;;;1.70;99.90;;;;;;5429150;26;21321;-85
2024/04/19 05:45:47;;;;;;;78.82;40.55;;;1.80;99.90;;;;;;5362910;26;20060;-84
2024/04/19 05:51:54;;;;;;;71.30;34.97;;;2.00;99.90;;;;;;5354270;26;20019;-84
2024/04/19 05:57:46;;;;;;;70.07;36.93;;;2.10;99.90;;;;;;5384524;26;20555;-84
2024/04/19 06:03:47;;;;;;;;;;;;;;;;;;;;;
2024/04/19 06:06:28;;;;;;;;;;;;;;;;;;;;;
2024/04/19 06:09:59;;;;;;;;;;;;;;;;;;;;;
2024/04/19 06:15:29;;;;;;;;;;;;;;;;;;;;;
2024/04/19 06:18:41;;;;;;;;;;;;;;;;;;;;;
2024/04/19 06:21:56;;;;;;;40.65;24.35;;;3.40;99.90;;;;;;5375964;26;20003;-85
2024/04/19 06:28:46;;;;;;;;;;;;;;;;;;;;;
2024/04/19 06:35:16;;;;;;;;;;;;;;;;;;;;;
2024/04/19 06:38:13;;;;;;;33.80;21.45;;;4.00;99.90;;;;;;5330810;26;21612;-84
2024/04/19 06:41:36;;;;;;;;;;;;;;;;;;;;;
2024/04/19 06:44:57;;;;;;;33.70;21.38;;;4.20;99.90;;;;;;5350381;26;20019;-85
2024/04/19 06:47:59;;;;;;;33.22;21.25;;;4.40;99.90;;;;;;5385557;26;20401;-85
2024/04/19 06:51:22;;;;;;;28.88;17.77;;;4.60;99.90;;;;;;5332664;26;19992;-85
2024/04/19 06:54:39;;;;;;;29.52;19.13;;;4.90;99.90;;;;;;5288119;26;20071;-85
2024/04/19 07:00:30;;;;;;;;;;;;;;;;;;;;;
2024/04/19 07:03:34;;;;;;;28.38;17.83;;;5.20;99.90;;;;;;5385897;26;20147;-85
2024/04/19 07:06:32;;;;;;;24.40;16.30;;;5.40;99.90;;;;;;5343573;26;20028;-86
2024/04/19 07:09:33;;;;;;;31.52;18.27;;;5.50;99.90;;;;;;5356302;26;20130;-85
2024/04/19 07:12:18;;;;;;;27.08;16.42;;;5.70;99.90;;;;;;5314900;26;20583;-85
2024/04/19 07:14:55;;;;;;;24.50;16.13;;;5.90;99.90;;;;;;5387906;26;20006;-85
2024/04/19 07:21:43;;;;;;;23.20;15.50;;;6.20;99.90;;;;;;5106567;27;20078;-85
2024/04/19 07:31:14;;;;;;;27.77;15.68;;;6.60;92.00;;;;;;5244353;27;20118;-85
2024/04/19 07:34:34;;;;;;;;;;;;;;;;;;;;;
2024/04/19 07:41:55;;;;;;;;;;;;;;;;;;;;;
2024/04/19 07:45:07;;;;;;;;;;;;;;;;;;;;;
2024/04/19 07:51:06;;;;;;;19.85;12.60;;;6.50;97.50;;;;;;5191443;27;19932;-85
2024/04/19 07:57:33;;;;;;;17.83;10.32;;;6.60;94.00;;;;;;5222998;27;20026;-83
2024/04/19 08:00:38;;;;;;;15.77;9.80;;;6.50;86.40;;;;;;5235915;27;20053;-84
2024/04/19 08:03:48;;;;;;;12.23;9.02;;;6.70;81.70;;;;;;5260375;27;20612;-85
2024/04/19 08:10:16;;;;;;;10.48;7.90;;;7.40;76.20;;;;;;5162040;27;20015;-84
2024/04/19 08:16:25;;;;;;;11.60;6.50;;;8.00;70.40;;;;;;5100673;27;20090;-86
2024/04/19 08:33:08;;;;;;;5.70;4.50;;;8.20;65.70;;;;;;4902062;28;20013;-85
2024/04/19 08:36:21;;;;;;;5.75;4.78;;;8.00;65.60;;;;;;4940380;28;20014;-85
2024/04/19 08:43:09;;;;;;;7.47;4.60;;;7.90;68.50;;;;;;5095808;27;20213;-85
2024/04/19 08:46:25;;;;;;;;;;;;;;;;;;;;;
2024/04/19 08:56:46;;;;;;;;;;;;;;;;;;;;;
2024/04/19 09:03:32;;;;;;;;;;;;;;;;;;;;;
2024/04/19 09:21:44;;;;;;;;;;;;;;;;;;;;;
2024/04/19 10:33:06;;;;;;;;;;;;;;;;;;;;;
2024/04/19 10:36:37;;;;;;;;;;;;;;;;;;;;;
2024/04/19 10:39:53;;;;;;;7.05;3.90;;;9.80;56.10;;;;;;6289568;22;20020;-85
2024/04/19 10:43:50;;;;;;;3.30;2.33;;;9.80;56.00;;;;;;6233907;22;20000;-85
2024/04/19 10:46:56;;;;;;;7.65;4.10;;;9.90;56.30;;;;;;6236800;22;20000;-84
2024/04/19 11:53:40;;;;;;;;;;;;;;;;;;;;;
2024/04/19 11:56:53;;;;;;;24.60;16.02;;;9.50;57.10;;;;;;5908621;23;21680;-86
2024/04/19 12:00:19;;;;;;;;;;;;;;;;;;;;;
2024/04/19 12:10:16;;;;;;;18.15;14.18;;;5.80;99.90;;;;;;6137754;22;20069;-82
2024/04/19 12:13:11;;;;;;;;;;;;;;;;;;;;;
2024/04/19 12:16:08;;;;;;;;;;;;;;;;;;;;;
2024/04/19 12:19:09;;;;;;;26.00;12.98;;;5.90;99.90;;;;;;6448285;22;20083;-84
2024/04/19 12:22:06;;;;;;;7.85;6.60;;;6.00;99.90;;;;;;6496984;21;20006;-84
2024/04/19 12:25:10;;;;;;;22.55;11.75;;;6.00;99.90;;;;;;6616294;21;20067;-84
2024/04/19 12:27:49;;;;;;;12.88;7.22;;;5.90;99.90;;;;;;6554135;21;20007;-85
2024/04/19 12:30:33;;;;;;;3.58;3.13;;;5.70;99.90;;;;;;6549870;21;20012;-85
2024/04/19 12:33:41;;;;;;;3.65;3.13;;;5.60;99.90;;;;;;6525845;21;20005;-85
2024/04/19 12:36:50;;;;;;;;;;;;;;;;;;;;;
2024/04/19 12:43:21;;;;;;;;;;;;;;;;;;;;;
2024/04/19 12:46:40;;;;;;;;;;;;;;;;;;;;;
2024/04/19 12:53:33;;;;;;;9.88;4.57;;;7.90;99.90;;;;;;6197092;22;20005;-85
2024/04/19 14:46:08;;;;;;;;;;;;;;;;;;;;;
2024/04/19 15:38:55;;;;;;;;;;;;;;;;;;;;;
2024/04/19 15:42:39;;;;;;;;;;;;;;;;;;;;;
2024/04/19 16:29:36;;;;;;;42.70;17.85;;;9.20;62.90;;;;;;5040094;20;34356875;-83
2024/04/19 16:35:28;;;;;;;;;;;;;;;;;;;;;
2024/04/19 16:38:16;;;;;;;67.82;27.80;;;6.60;99.90;;;;;;6452988;22;20001;-85
2024/04/19 16:41:02;;;;;;;69.57;27.23;;;6.30;99.90;;;;;;6202191;22;20022;-86
2024/04/19 16:48:16;;;;;;;14.20;10.52;;;6.20;99.90;;;;;;6225179;23;20075;-83
2024/04/19 16:51:43;;;;;;;17.20;11.80;;;6.00;99.90;;;;;;6128377;22;20009;-85
2024/04/19 16:54:29;;;;;;;18.90;12.15;;;5.80;99.90;;;;;;6255688;22;20012;-85
2024/04/19 17:00:49;;;;;;;14.75;11.70;;;5.60;99.90;;;;;;6435021;22;20328;-86
2024/04/19 17:03:37;;;;;;;15.45;11.80;;;5.50;99.90;;;;;;6390695;22;20003;-85
2024/04/19 17:06:22;;;;;;;15.98;13.13;;;5.60;99.90;;;;;;6289609;22;20429;-85
2024/04/19 17:09:29;;;;;;;13.98;10.25;;;5.70;99.90;;;;;;6287039;22;20000;-85
2024/04/19 17:12:50;;;;;;;15.70;11.40;;;5.70;99.90;;;;;;6193072;23;20012;-85
2024/04/19 17:18:59;;;;;;;22.15;13.40;;;5.90;99.90;;;;;;6138139;23;20005;-85
2024/04/19 17:21:53;;;;;;;24.60;16.52;;;6.00;99.90;;;;;;6312465;22;20454;-84
2024/04/19 17:25:09;;;;;;;24.98;16.40;;;6.10;99.90;;;;;;6289798;22;20018;-85
2024/04/19 17:28:00;;;;;;;;;;;;;;;;;;;;;
2024/04/19 17:30:59;;;;;;;22.08;16.70;;;6.10;99.90;;;;;;6293048;22;19996;-85
2024/04/19 17:34:41;;;;;;;;;;;;;;;;;;;;;
2024/04/19 17:37:31;;;;;;;20.77;14.15;;;5.90;99.90;;;;;;6225383;22;20032;-86
2024/04/19 17:40:49;;;;;;;23.42;15.65;;;5.90;99.90;;;;;;6316837;22;20011;-85
2024/04/19 17:43:52;;;;;;;25.23;16.52;;;5.80;99.90;;;;;;6276653;22;20366;-85
2024/04/19 17:46:41;;;;;;;25.35;17.00;;;5.80;99.90;;;;;;6265865;22;20009;-85
2024/04/19 17:49:30;;;;;;;;;;;;;;;;;;;;;
2024/04/19 17:52:47;;;;;;;;;;;;;;;;;;;;;
2024/04/19 17:55:20;;;;;;;23.83;16.25;;;5.90;99.90;;;;;;6314227;22;20482;-85
2024/04/19 17:58:10;;;;;;;21.77;15.55;;;5.80;99.90;;;;;;6375184;22;20005;-84
2024/04/19 18:04:02;;;;;;;64.72;40.70;;;5.80;99.90;;;;;;6276558;22;20002;-85
2024/04/19 18:06:41;;;;;;;41.58;27.65;;;5.80;99.90;;;;;;6401403;22;20022;-85
2024/04/19 18:09:40;;;;;;;27.42;18.30;;;5.70;99.90;;;;;;6352578;22;20410;-84
2024/04/19 18:15:40;;;;;;;26.75;16.02;;;5.70;99.90;;;;;;6215077;23;20013;-85
2024/04/19 18:22:39;;;;;;;;;;;;;;;;;;;;;
2024/04/19 18:25:13;;;;;;;28.05;19.48;;;5.60;99.90;;;;;;6180889;22;19999;-86
2024/04/19 18:27:52;;;;;;;25.80;18.30;;;5.60;99.90;;;;;;6354911;22;20339;-84
2024/04/19 18:30:52;;;;;;;;;;;;;;;;;;;;;
2024/04/19 18:33:30;;;;;;;38.05;23.40;;;5.50;99.90;;;;;;6227221;22;20020;-85
2024/04/19 18:36:06;;;;;;;42.25;24.10;;;5.50;99.90;;;;;;6214755;22;20942;-85
2024/04/19 18:39:14;;;;;;;;;;;;;;;;;;;;;
2024/04/19 18:45:14;;;;;;;48.88;26.83;;;5.40;99.90;;;;;;6270723;22;20006;-85
2024/04/19 18:48:24;;;;;;;30.67;18.98;;;5.30;99.90;;;;;;6220019;22;20011;-85
2024/04/19 18:51:13;;;;;;;;;;;;;;;;;;;;;
2024/04/19 18:55:00;;;;;;;20.75;13.88;;;5.20;99.90;;;;;;6300059;22;19996;-85
2024/04/19 18:57:54;;;;;;;;;;;;;;;;;;;;;
2024/04/19 19:00:38;;;;;;;112.72;44.05;;;5.20;99.90;;;;;;6291002;22;20007;-84
2024/04/19 19:03:53;;;;;;;57.00;25.15;;;5.30;99.90;;;;;;6340448;22;20011;-84
2024/04/19 19:06:53;;;;;;;89.63;37.22;;;5.20;99.90;;;;;;6310556;22;20514;-84
2024/04/19 19:12:41;;;;;;;37.47;20.83;;;5.20;99.90;;;;;;6325477;22;20052;-84
2024/04/19 19:15:29;;;;;;;34.75;16.30;;;5.10;99.90;;;;;;6306682;22;20348;-84
2024/04/19 19:24:38;;;;;;;23.30;11.70;;;5.10;99.90;;;;;;6206123;23;20005;-85
2024/04/19 19:27:17;;;;;;;24.38;11.80;;;5.20;99.90;;;;;;6155306;23;20009;-84
2024/04/19 19:30:13;;;;;;;;;;;;;;;;;;;;;
2024/04/19 19:33:00;;;;;;;25.30;14.05;;;5.20;99.90;;;;;;6388726;22;20006;-85
2024/04/19 19:36:06;;;;;;;;;;;;;;;;;;;;;
2024/04/19 19:42:09;;;;;;;;;;;;;;;;;;;;;
2024/04/19 19:45:41;;;;;;;;;;;;;;;;;;;;;
2024/04/19 19:48:52;;;;;;;17.35;10.32;;;5.30;99.90;;;;;;6350168;22;20007;-84
2024/04/19 19:51:43;;;;;;;11.07;7.82;;;5.30;99.90;;;;;;6338121;22;20002;-85
2024/04/19 19:54:32;;;;;;;;;;;;;;;;;;;;;
2024/04/19 19:57:28;;;;;;;13.07;7.40;;;5.40;99.90;;;;;;6376137;22;21381;-84
2024/04/19 20:05:59;;;;;;;11.60;8.48;;;5.40;99.90;;;;;;6355535;22;20014;-85
2024/04/19 20:09:00;;;;;;;16.00;10.57;;;5.40;99.90;;;;;;6366402;22;20010;-85
2024/04/19 20:11:48;;;;;;;13.40;7.95;;;5.40;99.90;;;;;;6299185;22;20035;-85
2024/04/19 20:14:40;;;;;;;9.90;7.95;;;5.40;99.90;;;;;;6319748;22;20015;-84
2024/04/19 20:17:40;;;;;;;;;;;;;;;;;;;;;
2024/04/19 20:20:26;;;;;;;17.15;8.50;;;5.50;99.90;;;;;;6292305;22;23200;-85
2024/04/19 20:23:07;;;;;;;22.95;14.10;;;5.40;99.90;;;;;;6264327;22;20101;-84
2024/04/19 20:28:39;;;;;;;12.13;8.02;;;5.40;99.90;;;;;;6389721;22;20373;-85
2024/04/19 20:31:17;;;;;;;11.73;7.80;;;5.40;99.90;;;;;;6379294;22;20100;-84
2024/04/19 20:34:02;;;;;;;10.65;7.53;;;5.40;99.90;;;;;;6356020;22;20006;-84
2024/04/19 20:37:09;;;;;;;10.18;6.57;;;5.50;99.90;;;;;;6358706;22;20010;-84
2024/04/19 20:39:48;;;;;;;12.93;8.38;;;5.40;99.90;;;;;;6349744;22;20015;-84
2024/04/19 20:42:57;;;;;;;15.98;9.63;;;5.40;99.90;;;;;;6358051;22;20010;-84
2024/04/19 20:45:42;;;;;;;10.55;6.75;;;5.40;99.90;;;;;;6378948;22;20010;-85
2024/04/19 20:48:40;;;;;;;12.20;6.18;;;5.30;99.90;;;;;;6358015;22;20013;-85
2024/04/19 20:51:46;;;;;;;12.85;6.88;;;5.30;99.90;;;;;;6394802;22;20007;-85
2024/04/19 20:54:34;;;;;;;11.63;7.47;;;5.30;99.90;;;;;;6379112;22;20003;-84
2024/04/19 20:57:25;;;;;;;17.08;10.15;;;5.30;99.90;;;;;;6358303;22;20306;-84
2024/04/19 21:00:09;;;;;;;13.63;7.03;;;5.20;99.90;;;;;;6312282;22;20013;-85
2024/04/19 21:02:47;;;;;;;17.38;9.18;;;5.20;99.90;;;;;;6369089;22;20007;-84
2024/04/19 21:05:36;;;;;;;12.95;8.13;;;5.30;99.90;;;;;;6371577;22;20022;-85
2024/04/19 21:08:11;;;;;;;12.90;7.82;;;5.30;99.90;;;;;;6298671;22;20007;-84
2024/04/19 21:10:54;;;;;;;12.13;7.22;;;5.30;99.90;;;;;;6314518;22;20018;-84
2024/04/19 21:13:45;;;;;;;13.07;7.95;;;5.30;99.90;;;;;;6345581;22;20863;-84
2024/04/19 21:16:21;;;;;;;18.17;7.63;;;5.30;99.90;;;;;;6368185;22;20026;-83
2024/04/19 21:21:58;;;;;;;13.10;7.30;;;5.30;99.90;;;;;;6375536;22;20006;-84
2024/04/19 21:24:50;;;;;;;12.48;6.90;;;5.30;99.90;;;;;;6356798;22;20020;-84
2024/04/19 21:27:34;;;;;;;13.65;8.77;;;5.30;99.90;;;;;;6386983;22;20011;-84
2024/04/19 21:30:20;;;;;;;17.25;9.77;;;5.30;99.90;;;;;;6364595;22;20725;-84
2024/04/19 21:33:13;;;;;;;11.60;7.85;;;5.30;99.90;;;;;;6356070;22;19999;-84
2024/04/19 21:36:06;;;;;;;14.25;7.90;;;5.30;99.90;;;;;;6346217;22;19999;-84
2024/04/19 21:39:34;;;;;;;;;;;;;;;;;;;;;
2024/04/19 21:42:09;;;;;;;10.18;7.43;;;5.30;99.90;;;;;;6360301;22;21678;-84
2024/04/19 21:47:44;;;;;;;8.82;6.75;;;5.40;99.90;;;;;;6281053;22;20000;-84
2024/04/19 21:50:38;;;;;;;;;;;;;;;;;;;;;
2024/04/19 21:53:25;;;;;;;13.43;7.40;;;5.40;99.90;;;;;;6355249;22;21799;-84
2024/04/19 21:56:02;;;;;;;17.65;9.35;;;5.40;99.90;;;;;;6322391;22;20444;-84
2024/04/19 21:58:56;;;;;;;;;;;;;;;;;;;;;
2024/04/19 22:01:52;;;;;;;16.27;8.95;;;5.40;99.90;;;;;;6341653;22;20014;-84
2024/04/19 22:04:27;;;;;;;32.00;14.63;;;5.30;99.90;;;;;;6347204;22;20026;-84
2024/04/19 22:07:39;;;;;;;21.13;11.38;;;5.30;99.90;;;;;;6366260;22;20022;-83
2024/04/19 22:10:19;;;;;;;12.13;8.55;;;5.30;99.90;;;;;;6381061;22;20077;-84
2024/04/19 22:13:11;;;;;;;;;;;;;;;;;;;;;
2024/04/19 22:18:57;;;;;;;10.60;6.30;;;5.30;99.90;;;;;;6386325;22;20007;-84
2024/04/19 22:21:49;;;;;;;8.80;6.57;;;5.30;99.90;;;;;;6360754;22;20049;-84
2024/04/19 22:24:35;;;;;;;10.87;7.30;;;5.30;99.90;;;;;;6361154;22;20023;-84
2024/04/19 22:27:26;;;;;;;;;;;;;;;;;;;;;
2024/04/19 22:30:26;;;;;;;;;;;;;;;;;;;;;
2024/04/19 22:32:59;;;;;;;7.85;5.60;;;5.30;99.90;;;;;;6385532;22;19999;-84
2024/04/19 22:35:46;;;;;;;12.27;7.10;;;5.30;99.90;;;;;;6314907;22;20027;-84
2024/04/19 22:38:29;;;;;;;13.13;7.32;;;5.20;99.90;;;;;;6371012;22;20003;-84
2024/04/19 22:41:28;;;;;;;12.38;6.63;;;5.20;99.90;;;;;;6310457;22;20100;-84
2024/04/19 22:44:08;;;;;;;8.57;6.88;;;5.20;99.90;;;;;;6260208;22;20007;-84
2024/04/19 22:46:42;;;;;;;9.48;6.45;;;5.20;99.90;;;;;;6344079;22;20374;-84
2024/04/19 22:49:14;;;;;;;9.80;6.40;;;5.20;99.90;;;;;;6366475;22;20010;-84
2024/04/19 22:52:16;;;;;;;9.40;7.40;;;5.20;99.90;;;;;;6336902;22;20026;-84
2024/04/19 22:54:56;;;;;;;8.73;6.03;;;5.20;99.90;;;;;;6340169;22;20018;-84
2024/04/19 22:57:59;;;;;;;;;;;;;;;;;;;;;
2024/04/19 23:00:45;;;;;;;7.28;6.43;;;5.30;99.90;;;;;;6338972;22;20013;-84
2024/04/19 23:03:40;;;;;;;7.55;6.47;;;5.30;99.90;;;;;;6377257;22;19999;-84
2024/04/19 23:06:22;;;;;;;10.75;6.85;;;5.30;99.90;;;;;;6404844;22;20035;-85
2024/04/19 23:09:03;;;;;;;10.07;6.80;;;5.30;99.90;;;;;;6365406;22;19995;-84
2024/04/19 23:12:02;;;;;;;9.13;6.18;;;5.30;99.90;;;;;;6368882;22;20023;-84
2024/04/19 23:15:00;;;;;;;11.88;7.40;;;5.30;99.90;;;;;;6297215;22;20006;-83
2024/04/19 23:17:48;;;;;;;11.13;6.93;;;5.30;99.90;;;;;;6311521;22;20074;-85
2024/04/19 23:20:53;;;;;;;13.50;8.93;;;5.20;99.90;;;;;;6271699;22;20015;-85
2024/04/19 23:23:30;;;;;;;14.82;9.38;;;5.20;99.90;;;;;;6300452;22;20011;-84
2024/04/19 23:26:23;;;;;;;;;;;;;;;;;;;;;
2024/04/19 23:29:16;;;;;;;9.80;7.55;;;5.20;99.90;;;;;;6385040;22;20430;-84
2024/04/19 23:31:57;;;;;;;9.95;7.75;;;5.20;99.90;;;;;;6357148;22;20011;-85
2024/04/19 23:37:21;;;;;;;13.77;9.35;;;5.30;99.90;;;;;;6335335;22;20422;-85
2024/04/19 23:40:29;;;;;;;12.63;8.80;;;5.30;99.90;;;;;;6300272;22;20085;-85
2024/04/19 23:43:02;;;;;;;11.82;8.70;;;5.30;99.90;;;;;;6349156;22;20011;-84
2024/04/19 23:45:54;;;;;;;13.63;9.45;;;5.30;99.90;;;;;;6340657;22;20014;-85